createdAt,value
2018-12-12T09:44:40.559Z,1015.79
2018-12-12T09:45:39.606Z,1015.77
2018-12-12T09:46:39.583Z,1015.80
2018-12-12T09:47:39.822Z,1015.84
2018-12-12T09:48:39.560Z,1015.84
2018-12-12T09:49:39.660Z,1015.82
2018-12-12T09:50:39.549Z,1015.77
2018-12-12T09:51:39.786Z,1015.83
2018-12-12T09:52:39.532Z,1015.82
2018-12-12T09:53:39.504Z,1015.78
2018-12-12T09:54:39.492Z,1015.75
2018-12-12T09:55:40.413Z,1015.78
2018-12-12T09:56:39.907Z,1015.70
2018-12-12T09:57:39.465Z,1015.73
2018-12-12T09:58:39.453Z,1015.76
2018-12-12T09:59:39.438Z,1015.74
2018-12-12T10:00:39.475Z,1015.75
2018-12-12T10:01:39.674Z,1015.80
2018-12-12T10:02:39.405Z,1015.75
2018-12-12T10:03:39.384Z,1015.74
2018-12-12T10:04:39.417Z,1015.77
2018-12-12T10:05:39.378Z,1015.75
2018-12-12T10:06:39.356Z,1015.75
2018-12-12T10:07:39.346Z,1015.76
2018-12-12T10:08:41.049Z,1015.72
2018-12-12T10:09:39.368Z,1015.73
2018-12-12T10:10:39.389Z,1015.80
2018-12-12T10:11:39.610Z,1015.79
2018-12-12T10:12:39.284Z,1015.73
2018-12-12T10:13:39.293Z,1015.73
2018-12-12T10:14:39.256Z,1015.75
2018-12-12T10:15:39.272Z,1015.73
2018-12-12T10:16:39.260Z,1015.72
2018-12-12T10:17:39.268Z,1015.70
2018-12-12T10:18:39.263Z,1015.69
2018-12-12T10:19:39.465Z,1015.72
2018-12-12T10:20:39.249Z,1015.68
2018-12-12T10:21:39.190Z,1015.68
2018-12-12T10:22:39.179Z,1015.69
2018-12-12T10:23:39.178Z,1015.72
2018-12-12T10:24:39.418Z,1015.71
2018-12-12T10:25:39.191Z,1015.69
2018-12-12T10:26:39.140Z,1015.69
2018-12-12T10:27:39.149Z,1015.71
2018-12-12T10:28:39.132Z,1015.68
2018-12-12T10:29:39.456Z,1015.68
2018-12-12T10:30:39.178Z,1015.71
2018-12-12T10:31:39.352Z,1015.66
2018-12-12T10:32:39.083Z,1015.66
2018-12-12T10:33:39.056Z,1015.66
2018-12-12T10:34:39.061Z,1015.67
2018-12-12T10:35:39.024Z,1015.66
2018-12-12T10:36:39.282Z,1015.61
2018-12-12T10:37:39.030Z,1015.62
2018-12-12T10:38:39.023Z,1015.60
2018-12-12T10:39:38.992Z,1015.57
2018-12-12T10:40:38.967Z,1015.59
2018-12-12T10:41:38.974Z,1015.55
2018-12-12T10:42:38.951Z,1015.50
2018-12-12T10:43:38.942Z,1015.53
2018-12-12T10:44:39.200Z,1015.54
2018-12-12T10:45:38.915Z,1015.53
2018-12-12T10:46:38.918Z,1015.49
2018-12-12T10:47:38.900Z,1015.55
2018-12-12T10:48:38.954Z,1015.52
2018-12-12T10:49:38.889Z,1015.46
2018-12-12T10:50:39.115Z,1015.43
2018-12-12T10:51:38.860Z,1015.40
2018-12-12T10:52:38.881Z,1015.41
2018-12-12T10:53:39.115Z,1015.43
2018-12-12T10:54:38.842Z,1015.44
2018-12-12T10:55:38.838Z,1015.42
2018-12-12T10:56:38.950Z,1015.41
2018-12-12T10:57:38.820Z,1015.45
2018-12-12T10:58:39.123Z,1015.41
2018-12-12T10:59:39.026Z,1015.41
2018-12-12T11:00:39.055Z,1015.39
2018-12-12T11:01:38.751Z,1015.36
2018-12-12T11:02:39.009Z,1015.40
2018-12-12T11:03:44.093Z,1015.39
2018-12-12T11:04:38.714Z,1015.39
2018-12-12T11:05:38.693Z,1015.36
2018-12-12T11:06:38.682Z,1015.38
2018-12-12T11:07:38.694Z,1015.39
2018-12-12T11:08:38.666Z,1015.36
2018-12-12T11:09:38.692Z,1015.36
2018-12-12T11:10:42.780Z,1015.36
2018-12-12T11:11:38.634Z,1015.33
2018-12-12T11:12:38.634Z,1015.30
2018-12-12T11:13:38.870Z,1015.30
2018-12-12T11:14:38.712Z,1015.28
2018-12-12T11:15:38.607Z,1015.31
2018-12-12T11:16:38.581Z,1015.25
2018-12-12T11:17:38.594Z,1015.27
2018-12-12T11:18:39.518Z,1015.30
2018-12-12T11:19:38.836Z,1015.25
2018-12-12T11:20:38.565Z,1015.27
2018-12-12T11:21:38.590Z,1015.23
2018-12-12T11:22:38.525Z,1015.25
2018-12-12T11:23:38.522Z,1015.31
2018-12-12T11:24:38.553Z,1015.22
2018-12-12T11:25:38.483Z,1015.20
2018-12-12T11:26:38.770Z,1015.20
2018-12-12T11:27:38.510Z,1015.18
2018-12-12T11:28:38.435Z,1015.17
2018-12-12T11:29:39.467Z,1015.20
2018-12-12T11:30:38.679Z,1015.14
2018-12-12T11:31:38.424Z,1015.17
2018-12-12T11:32:38.644Z,1015.10
2018-12-12T11:33:38.395Z,1015.10
2018-12-12T11:34:38.643Z,1015.09
2018-12-12T11:35:38.565Z,1015.12
2018-12-12T11:36:39.679Z,1015.07
2018-12-12T11:37:38.374Z,1014.98
2018-12-12T11:38:38.364Z,1015.07
2018-12-12T11:39:45.396Z,1015.03
2018-12-12T11:41:00.634Z,1015.01
2018-12-12T11:42:00.643Z,1015.06
2018-12-12T11:43:00.610Z,1015.07
2018-12-12T11:44:00.621Z,1015.03
2018-12-12T11:45:00.588Z,1015.05
2018-12-12T11:46:00.887Z,1015.03
2018-12-12T11:47:00.556Z,1015.06
2018-12-12T11:48:00.551Z,1015.09
2018-12-12T11:49:00.571Z,1015.03
2018-12-12T11:50:00.577Z,1015.06
2018-12-12T11:51:00.542Z,1015.05
2018-12-12T11:52:00.578Z,1015.06
2018-12-12T11:53:00.517Z,1015.04
2018-12-12T11:54:00.484Z,1014.99
2018-12-12T11:55:00.558Z,1014.97
2018-12-12T11:56:00.473Z,1014.98
2018-12-12T11:57:00.521Z,1014.99
2018-12-12T11:58:00.450Z,1014.95
2018-12-12T11:59:00.682Z,1014.93
2018-12-12T12:00:00.426Z,1014.94
2018-12-12T12:01:00.402Z,1014.95
2018-12-12T12:02:00.420Z,1014.93
2018-12-12T12:03:00.635Z,1014.96
2018-12-12T12:04:00.699Z,1014.99
2018-12-12T12:05:00.356Z,1014.94
2018-12-12T12:06:00.354Z,1014.97
2018-12-12T12:07:00.339Z,1014.96
2018-12-12T12:08:00.332Z,1014.94
2018-12-12T12:09:00.323Z,1014.96
2018-12-12T12:10:00.300Z,1014.94
2018-12-12T12:11:00.291Z,1014.90
2018-12-12T12:12:00.539Z,1014.91
2018-12-12T12:13:00.449Z,1014.89
2018-12-12T12:14:00.256Z,1014.88
2018-12-12T12:15:00.266Z,1014.93
2018-12-12T12:16:00.233Z,1014.89
2018-12-12T12:17:00.264Z,1014.91
2018-12-12T12:18:00.227Z,1014.88
2018-12-12T12:19:00.245Z,1014.88
2018-12-12T12:20:00.192Z,1014.88
2018-12-12T12:21:00.183Z,1014.84
2018-12-12T12:22:00.177Z,1014.84
2018-12-12T12:23:00.166Z,1014.84
2018-12-12T12:24:00.161Z,1014.84
2018-12-12T12:25:00.384Z,1014.82
2018-12-12T12:26:00.125Z,1014.85
2018-12-12T12:27:00.132Z,1014.90
2018-12-12T12:28:00.107Z,1014.86
2018-12-12T12:29:00.106Z,1014.82
2018-12-12T12:30:00.088Z,1014.81
2018-12-12T12:31:00.070Z,1014.83
2018-12-12T12:32:00.085Z,1014.76
2018-12-12T12:33:00.036Z,1014.81
2018-12-12T12:34:03.206Z,1014.79
2018-12-12T12:35:00.248Z,1014.79
2018-12-12T12:36:00.004Z,1014.76
2018-12-12T12:36:59.984Z,1014.77
2018-12-12T12:37:59.980Z,1014.79
2018-12-12T12:38:59.959Z,1014.70
2018-12-12T12:40:00.222Z,1014.71
2018-12-12T12:40:59.946Z,1014.75
2018-12-12T12:41:59.933Z,1014.73
2018-12-12T12:42:59.941Z,1014.72
2018-12-12T12:43:59.910Z,1014.76
2018-12-12T12:44:59.921Z,1014.69
2018-12-12T12:45:59.902Z,1014.71
2018-12-12T12:46:59.921Z,1014.70
2018-12-12T12:47:59.892Z,1014.69
2018-12-12T12:48:59.871Z,1014.65
2018-12-12T12:50:04.221Z,1014.67
2018-12-12T12:50:59.879Z,1014.67
2018-12-12T12:51:59.832Z,1014.65
2018-12-12T12:52:59.819Z,1014.68
2018-12-12T12:53:59.878Z,1014.67
2018-12-12T12:54:59.788Z,1014.67
2018-12-12T12:55:59.772Z,1014.66
2018-12-12T12:56:59.762Z,1014.67
2018-12-12T12:57:59.899Z,1014.65
2018-12-12T12:58:59.747Z,1014.63
2018-12-12T12:59:59.750Z,1014.59
2018-12-12T13:00:59.740Z,1014.60
2018-12-12T13:01:59.705Z,1014.56
2018-12-12T13:02:59.960Z,1014.57
2018-12-12T13:04:00.019Z,1014.50
2018-12-12T13:04:59.673Z,1014.47
2018-12-12T13:05:59.658Z,1014.53
2018-12-12T13:06:59.653Z,1014.50
2018-12-12T13:07:59.637Z,1014.50
2018-12-12T13:08:59.890Z,1014.50
2018-12-12T13:09:59.615Z,1014.48
2018-12-12T13:10:59.852Z,1014.48
2018-12-12T13:11:59.902Z,1014.43
2018-12-12T13:13:02.590Z,1014.40
2018-12-12T13:13:59.668Z,1014.38
2018-12-12T13:14:59.610Z,1014.34
2018-12-12T13:16:00.366Z,1014.36
2018-12-12T13:16:59.553Z,1014.39
2018-12-12T13:17:59.523Z,1014.34
2018-12-12T13:18:59.535Z,1014.39
2018-12-12T13:19:59.774Z,1014.34
2018-12-12T13:20:59.569Z,1014.37
2018-12-12T13:21:59.477Z,1014.32
2018-12-12T13:22:59.481Z,1014.30
2018-12-12T13:23:59.469Z,1014.27
2018-12-12T13:24:59.478Z,1014.25
2018-12-12T13:25:59.480Z,1014.27
2018-12-12T13:26:59.435Z,1014.26
2018-12-12T13:27:59.414Z,1014.29
2018-12-12T13:28:59.398Z,1014.24
2018-12-12T13:29:59.392Z,1014.22
2018-12-12T13:30:59.377Z,1014.21
2018-12-12T13:31:59.369Z,1014.15
2018-12-12T13:32:59.603Z,1014.20
2018-12-12T13:33:59.334Z,1014.21
2018-12-12T13:34:59.435Z,1014.18
2018-12-12T13:35:59.363Z,1014.13
2018-12-12T13:36:59.315Z,1014.17
2018-12-12T13:37:59.309Z,1014.16
2018-12-12T13:38:59.284Z,1014.17
2018-12-12T13:39:59.270Z,1014.17
2018-12-12T13:40:59.303Z,1014.20
2018-12-12T13:41:59.256Z,1014.21
2018-12-12T13:42:59.250Z,1014.21
2018-12-12T13:43:59.249Z,1014.21
2018-12-12T13:44:59.313Z,1014.21
2018-12-12T13:45:59.205Z,1014.23
2018-12-12T13:46:59.429Z,1014.20
2018-12-12T13:47:59.189Z,1014.15
2018-12-12T13:48:59.166Z,1014.11
2018-12-12T13:49:59.170Z,1014.10
2018-12-12T13:50:59.498Z,1014.12
2018-12-12T13:52:00.371Z,1014.06
2018-12-12T13:52:59.165Z,1014.07
2018-12-12T13:53:59.124Z,1013.99
2018-12-12T13:54:59.114Z,1013.99
2018-12-12T13:55:59.362Z,1013.97
2018-12-12T13:56:59.087Z,1013.99
2018-12-12T13:57:59.073Z,1014.02
2018-12-12T13:58:59.480Z,1013.97
2018-12-12T13:59:59.075Z,1013.93
2018-12-12T14:00:59.050Z,1013.98
2018-12-12T14:01:59.030Z,1013.99
2018-12-12T14:02:59.014Z,1014.03
2018-12-12T14:03:59.005Z,1014.02
2018-12-12T14:04:59.001Z,1013.98
2018-12-12T14:05:59.195Z,1014.03
2018-12-12T14:06:59.223Z,1014.02
2018-12-12T14:07:58.967Z,1014.04
2018-12-12T14:08:58.996Z,1014.03
2018-12-12T14:09:59.012Z,1014.05
2018-12-12T14:10:58.917Z,1014.05
2018-12-12T14:11:58.922Z,1014.03
2018-12-12T14:12:58.896Z,1014.04
2018-12-12T14:13:58.897Z,1014.02
2018-12-12T14:14:58.878Z,1014.00
2018-12-12T14:15:58.874Z,1014.01
2018-12-12T14:16:58.868Z,1013.96
2018-12-12T14:18:00.272Z,1013.98
2018-12-12T14:18:58.843Z,1013.98
2018-12-12T14:19:58.823Z,1013.94
2018-12-12T14:20:58.817Z,1013.97
2018-12-12T14:21:58.806Z,1013.94
2018-12-12T14:22:58.868Z,1013.93
2018-12-12T14:23:58.787Z,1013.96
2018-12-12T14:24:58.784Z,1013.94
2018-12-12T14:25:58.761Z,1013.90
2018-12-12T14:26:58.746Z,1013.96
2018-12-12T14:27:58.757Z,1013.92
2018-12-12T14:28:58.725Z,1013.92
2018-12-12T14:29:58.703Z,1013.93
2018-12-12T14:30:58.719Z,1013.94
2018-12-12T14:31:58.829Z,1013.92
2018-12-12T14:32:58.919Z,1013.91
2018-12-12T14:33:58.686Z,1013.88
2018-12-12T14:34:58.903Z,1013.83
2018-12-12T14:36:01.144Z,1013.92
2018-12-12T14:36:58.631Z,1013.90
2018-12-12T14:37:58.658Z,1013.96
2018-12-12T14:38:58.605Z,1013.88
2018-12-12T14:39:58.657Z,1013.88
2018-12-12T14:40:58.585Z,1013.84
2018-12-12T14:41:58.580Z,1013.84
2018-12-12T14:42:58.569Z,1013.85
2018-12-12T14:44:02.119Z,1013.84
2018-12-12T14:44:58.569Z,1013.86
2018-12-12T14:45:58.642Z,1013.93
2018-12-12T14:46:58.512Z,1013.84
2018-12-12T14:47:58.512Z,1013.84
2018-12-12T14:48:58.495Z,1013.88
2018-12-12T14:49:58.538Z,1013.92
2018-12-12T14:50:58.474Z,1013.92
2018-12-12T14:51:58.460Z,1013.88
2018-12-12T14:52:58.483Z,1013.89
2018-12-12T14:53:58.431Z,1013.91
2018-12-12T14:54:59.419Z,1013.91
2018-12-12T14:55:58.415Z,1013.89
2018-12-12T14:56:58.404Z,1013.89
2018-12-12T14:57:58.387Z,1013.86
2018-12-12T14:58:58.373Z,1013.88
2018-12-12T14:59:58.389Z,1013.89
2018-12-12T15:00:58.349Z,1013.91
2018-12-12T15:01:58.337Z,1013.94
2018-12-12T15:02:58.344Z,1013.88
2018-12-12T15:03:58.345Z,1013.93
2018-12-12T15:04:58.306Z,1013.93
2018-12-12T15:05:58.297Z,1013.90
2018-12-12T15:06:58.285Z,1013.92
2018-12-12T15:07:58.528Z,1013.92
2018-12-12T15:08:58.260Z,1013.87
2018-12-12T15:09:58.302Z,1013.89
2018-12-12T15:10:58.252Z,1013.84
2018-12-12T15:11:58.690Z,1013.85
2018-12-12T15:12:58.231Z,1013.81
2018-12-12T15:13:58.221Z,1013.81
2018-12-12T15:14:58.238Z,1013.80
2018-12-12T15:15:58.187Z,1013.81
2018-12-12T15:16:58.199Z,1013.84
2018-12-12T15:17:58.215Z,1013.80
2018-12-12T15:18:58.192Z,1013.88
2018-12-12T15:20:01.663Z,1013.82
2018-12-12T15:20:58.132Z,1013.81
2018-12-12T15:21:58.144Z,1013.85
2018-12-12T15:22:58.109Z,1013.86
2018-12-12T15:23:58.101Z,1013.85
2018-12-12T15:24:58.080Z,1013.82
2018-12-12T15:25:58.070Z,1013.83
2018-12-12T15:26:58.055Z,1013.85
2018-12-12T15:27:58.042Z,1013.82
2018-12-12T15:28:58.051Z,1013.81
2018-12-12T15:29:58.042Z,1013.80
2018-12-12T15:30:58.014Z,1013.81
2018-12-12T15:31:57.999Z,1013.84
2018-12-12T15:32:58.003Z,1013.82
2018-12-12T15:33:57.975Z,1013.79
2018-12-12T15:34:58.012Z,1013.78
2018-12-12T15:35:57.954Z,1013.80
2018-12-12T15:36:57.941Z,1013.84
2018-12-12T15:37:57.983Z,1013.79
2018-12-12T15:38:57.915Z,1013.88
2018-12-12T15:39:58.153Z,1013.93
2018-12-12T15:40:57.896Z,1013.92
2018-12-12T15:41:57.904Z,1013.94
2018-12-12T15:42:58.208Z,1013.90
2018-12-12T15:43:58.116Z,1013.96
2018-12-12T15:45:57.850Z,1013.93
2018-12-12T15:46:58.107Z,1013.94
2018-12-12T15:47:58.079Z,1013.94
2018-12-12T15:48:58.062Z,1013.90
2018-12-12T15:50:57.786Z,1013.98
2018-12-12T15:51:57.780Z,1013.91
2018-12-12T15:52:57.760Z,1013.92
2018-12-12T15:59:57.683Z,1013.97
